createdAt,value
2019-03-23T00:00:40.389Z,9.40
2019-03-23T00:01:40.373Z,9.80
2019-03-23T00:02:40.392Z,8.70
2019-03-23T00:03:40.353Z,10.00
2019-03-23T00:04:40.365Z,9.30
2019-03-23T00:05:40.330Z,9.70
2019-03-23T00:06:40.321Z,9.20
2019-03-23T00:07:40.316Z,9.20
2019-03-23T00:08:40.308Z,9.70
2019-03-23T00:09:40.311Z,9.30
2019-03-23T00:10:40.294Z,8.90
2019-03-23T00:11:40.487Z,8.90
2019-03-23T00:12:40.273Z,8.80
2019-03-23T00:13:40.245Z,9.30
2019-03-23T00:14:40.241Z,8.90
2019-03-23T00:15:40.262Z,8.20
2019-03-23T00:16:40.235Z,9.20
2019-03-23T00:17:40.206Z,8.90
2019-03-23T00:18:40.190Z,10.30
2019-03-23T00:19:40.191Z,8.90
2019-03-23T00:20:40.176Z,8.80
2019-03-23T00:21:40.199Z,10.60
2019-03-23T00:22:40.170Z,10.00
2019-03-23T00:23:40.181Z,8.50
2019-03-23T00:24:40.128Z,11.40
2019-03-23T00:25:40.121Z,8.60
2019-03-23T00:26:40.113Z,8.90
2019-03-23T00:27:40.125Z,10.40
2019-03-23T00:28:40.110Z,8.60
2019-03-23T00:29:40.077Z,8.30
2019-03-23T00:30:40.064Z,8.30
2019-03-23T00:31:40.055Z,9.00
2019-03-23T00:32:40.039Z,8.80
2019-03-23T00:33:40.085Z,8.10
2019-03-23T00:34:40.023Z,9.80
2019-03-23T00:35:40.011Z,11.00
2019-03-23T00:36:41.796Z,9.30
2019-03-23T00:37:39.984Z,9.50
2019-03-23T00:38:39.990Z,10.50
2019-03-23T00:39:40.019Z,8.70
2019-03-23T00:40:39.955Z,8.30
2019-03-23T00:41:39.945Z,9.40
2019-03-23T00:42:39.931Z,10.30
2019-03-23T00:43:39.936Z,10.00
2019-03-23T00:44:39.909Z,11.30
2019-03-23T00:45:39.948Z,11.20
2019-03-23T00:46:39.886Z,12.70
2019-03-23T00:47:39.879Z,11.50
2019-03-23T00:48:39.895Z,12.40
2019-03-23T00:49:39.854Z,13.40
2019-03-23T00:50:39.849Z,12.50
2019-03-23T00:51:39.875Z,12.20
2019-03-23T00:52:39.822Z,12.40
2019-03-23T00:53:39.833Z,13.30
2019-03-23T00:54:39.808Z,14.30
2019-03-23T00:55:39.792Z,13.30
2019-03-23T00:56:39.790Z,13.20
2019-03-23T00:57:39.795Z,13.80
2019-03-23T00:58:39.782Z,13.90
2019-03-23T00:59:39.769Z,14.50
2019-03-23T01:00:39.740Z,13.70
2019-03-23T01:01:39.730Z,12.60
2019-03-23T01:02:41.690Z,14.30
2019-03-23T01:03:39.705Z,13.40
2019-03-23T01:04:39.714Z,14.10
2019-03-23T01:05:39.733Z,14.80
2019-03-23T01:06:39.727Z,13.90
2019-03-23T01:07:39.668Z,15.20
2019-03-23T01:08:39.658Z,14.40
2019-03-23T01:09:39.639Z,13.60
2019-03-23T01:10:39.628Z,15.60
2019-03-23T01:11:39.654Z,14.10
2019-03-23T01:12:39.647Z,15.30
2019-03-23T01:13:39.628Z,14.50
2019-03-23T01:14:39.589Z,14.00
2019-03-23T01:15:39.580Z,15.70
2019-03-23T01:16:39.577Z,15.00
2019-03-23T01:17:39.574Z,13.90
2019-03-23T01:18:39.609Z,14.50
2019-03-23T01:19:39.541Z,14.60
2019-03-23T01:20:49.373Z,14.60
2019-03-23T01:21:40.513Z,15.30
2019-03-23T01:22:39.518Z,14.60
2019-03-23T01:23:39.512Z,14.40
2019-03-23T01:24:39.501Z,12.60
2019-03-23T01:25:39.468Z,12.70
2019-03-23T01:26:39.466Z,13.70
2019-03-23T01:27:39.458Z,12.90
2019-03-23T01:28:39.438Z,12.60
2019-03-23T01:29:39.454Z,11.70
2019-03-23T01:30:39.454Z,10.80
2019-03-23T01:31:39.413Z,11.30
2019-03-23T01:32:39.395Z,11.20
2019-03-23T01:33:39.387Z,10.60
2019-03-23T01:34:39.376Z,10.60
2019-03-23T01:35:39.382Z,9.60
2019-03-23T01:36:39.381Z,11.20
2019-03-23T01:37:39.342Z,10.30
2019-03-23T01:38:39.334Z,10.10
2019-03-23T01:39:39.347Z,10.80
2019-03-23T01:40:39.328Z,11.00
2019-03-23T01:41:39.306Z,10.20
2019-03-23T01:42:39.317Z,10.60
2019-03-23T01:43:39.319Z,11.10
2019-03-23T01:44:39.292Z,10.90
2019-03-23T01:45:39.266Z,10.50
2019-03-23T01:46:39.258Z,10.40
2019-03-23T01:47:39.238Z,10.70
2019-03-23T01:48:39.239Z,9.00
2019-03-23T01:49:39.249Z,10.10
2019-03-23T01:50:39.226Z,9.80
2019-03-23T01:51:39.205Z,9.00
2019-03-23T01:52:39.190Z,10.00
2019-03-23T01:53:39.185Z,9.70
2019-03-23T01:54:39.170Z,9.30
2019-03-23T01:55:39.352Z,11.30
2019-03-23T01:56:39.149Z,8.90
2019-03-23T01:57:39.134Z,12.60
2019-03-23T01:58:39.129Z,9.10
2019-03-23T01:59:39.120Z,9.50
2019-03-23T02:00:39.120Z,9.00
2019-03-23T02:01:39.124Z,9.50
2019-03-23T02:02:39.112Z,8.90
2019-03-23T02:03:39.071Z,10.80
2019-03-23T02:04:39.069Z,9.30
2019-03-23T02:05:39.049Z,11.10
2019-03-23T02:06:39.060Z,9.80
2019-03-23T02:07:39.037Z,8.60
2019-03-23T02:08:39.049Z,9.30
2019-03-23T02:09:39.046Z,9.50
2019-03-23T02:10:38.996Z,12.10
2019-03-23T02:11:38.989Z,9.60
2019-03-23T02:12:38.994Z,12.40
2019-03-23T02:13:38.963Z,14.10
2019-03-23T02:14:38.953Z,12.90
2019-03-23T02:15:39.005Z,15.80
2019-03-23T02:16:38.984Z,16.70
2019-03-23T02:17:38.936Z,32.20
2019-03-23T02:18:38.915Z,31.40
2019-03-23T02:19:38.899Z,32.50
2019-03-23T02:20:38.907Z,39.70
2019-03-23T02:21:38.932Z,34.10
2019-03-23T02:22:38.869Z,39.20
2019-03-23T02:23:38.860Z,34.10
2019-03-23T02:24:38.847Z,29.40
2019-03-23T02:25:38.856Z,30.20
2019-03-23T02:26:38.826Z,32.70
2019-03-23T02:27:38.844Z,30.80
2019-03-23T02:28:38.845Z,22.10
2019-03-23T02:29:38.802Z,21.90
2019-03-23T02:30:38.818Z,21.70
2019-03-23T02:31:38.774Z,19.40
2019-03-23T02:32:38.778Z,17.10
2019-03-23T02:33:38.767Z,16.80
2019-03-23T02:34:38.759Z,18.30
2019-03-23T02:35:38.740Z,23.30
2019-03-23T02:36:38.737Z,32.00
2019-03-23T02:37:38.945Z,28.70
2019-03-23T02:38:38.700Z,48.30
2019-03-23T02:39:38.705Z,43.40
2019-03-23T02:40:38.735Z,51.30
2019-03-23T02:41:38.690Z,59.20
2019-03-23T02:42:38.685Z,51.00
2019-03-23T02:43:38.651Z,54.60
2019-03-23T02:44:38.647Z,58.60
2019-03-23T02:45:38.656Z,49.10
2019-03-23T02:46:38.634Z,51.80
2019-03-23T02:47:38.693Z,53.40
2019-03-23T02:48:38.607Z,63.00
2019-03-23T02:49:38.591Z,53.90
2019-03-23T02:50:38.580Z,63.90
2019-03-23T02:51:39.878Z,53.70
2019-03-23T02:52:38.555Z,56.00
2019-03-23T02:53:38.563Z,45.80
2019-03-23T02:54:38.574Z,32.90
2019-03-23T02:55:38.525Z,25.10
2019-03-23T02:56:38.520Z,19.60
2019-03-23T02:57:38.533Z,19.90
2019-03-23T02:58:38.489Z,24.30
2019-03-23T02:59:38.503Z,27.30
2019-03-23T03:00:38.545Z,32.80
2019-03-23T03:01:38.477Z,32.10
2019-03-23T03:02:38.447Z,41.20
2019-03-23T03:03:38.435Z,43.80
2019-03-23T03:04:38.433Z,47.80
2019-03-23T03:05:38.430Z,54.60
2019-03-23T03:06:38.468Z,47.60
2019-03-23T03:07:42.688Z,54.90
2019-03-23T03:08:38.380Z,52.60
2019-03-23T03:09:38.375Z,53.20
2019-03-23T03:10:38.357Z,60.60
2019-03-23T03:11:38.374Z,63.90
2019-03-23T03:12:38.400Z,56.50
2019-03-23T03:13:38.324Z,54.20
2019-03-23T03:14:38.315Z,52.80
2019-03-23T03:15:38.306Z,49.80
2019-03-23T03:16:38.300Z,49.60
2019-03-23T03:17:38.304Z,52.10
2019-03-23T03:18:38.292Z,57.50
2019-03-23T03:19:38.336Z,48.80
2019-03-23T03:20:38.260Z,50.00
2019-03-23T03:21:38.253Z,50.10
2019-03-23T03:22:38.235Z,53.00
2019-03-23T03:23:38.245Z,49.80
2019-03-23T03:24:38.307Z,52.30
2019-03-23T03:25:38.200Z,54.00
2019-03-23T03:26:38.190Z,69.00
2019-03-23T03:27:38.194Z,62.30
2019-03-23T03:28:38.170Z,58.00
2019-03-23T03:29:38.179Z,59.10
2019-03-23T03:30:38.235Z,72.50
2019-03-23T03:31:38.171Z,80.40
2019-03-23T03:32:38.230Z,90.60
2019-03-23T03:33:38.112Z,80.40
2019-03-23T03:34:38.125Z,96.80
2019-03-23T03:35:38.091Z,88.90
2019-03-23T03:36:38.091Z,111.20
2019-03-23T03:37:38.076Z,91.60
2019-03-23T03:38:38.079Z,104.20
2019-03-23T03:39:38.086Z,107.20
2019-03-23T03:40:38.062Z,108.10
2019-03-23T03:41:38.077Z,105.50
2019-03-23T03:42:38.038Z,102.50
2019-03-23T03:43:38.025Z,109.00
2019-03-23T03:44:38.034Z,84.80
2019-03-23T03:45:37.997Z,89.10
2019-03-23T03:46:37.983Z,78.10
2019-03-23T03:47:41.073Z,74.10
2019-03-23T03:48:37.958Z,63.70
2019-03-23T03:49:37.975Z,78.40
2019-03-23T03:50:37.991Z,85.40
2019-03-23T03:51:37.922Z,82.50
2019-03-23T03:52:37.944Z,77.00
2019-03-23T03:53:37.900Z,91.30
2019-03-23T03:54:37.898Z,126.90
2019-03-23T03:55:37.885Z,148.90
2019-03-23T03:56:37.912Z,118.80
2019-03-23T03:57:37.910Z,175.60
2019-03-23T03:58:37.868Z,203.10
2019-03-23T03:59:37.841Z,206.50
2019-03-23T04:00:37.823Z,208.50
2019-03-23T04:01:37.815Z,196.40
2019-03-23T04:02:37.843Z,177.40
2019-03-23T04:03:37.804Z,188.60
2019-03-23T04:04:37.803Z,183.40
2019-03-23T04:05:37.795Z,164.10
2019-03-23T04:06:37.786Z,192.50
2019-03-23T04:07:37.780Z,186.50
2019-03-23T04:08:37.745Z,169.70
2019-03-23T04:09:40.313Z,175.30
2019-03-23T04:10:37.801Z,185.00
2019-03-23T04:11:37.719Z,213.10
2019-03-23T04:12:37.712Z,188.50
2019-03-23T04:13:37.689Z,206.80
2019-03-23T04:14:37.698Z,194.80
2019-03-23T04:15:37.664Z,180.40
2019-03-23T04:16:37.698Z,197.40
2019-03-23T04:17:37.652Z,179.80
2019-03-23T04:18:37.671Z,184.30
2019-03-23T04:19:37.626Z,193.20
2019-03-23T04:20:37.621Z,211.30
2019-03-23T04:21:37.609Z,195.50
2019-03-23T04:22:37.629Z,232.80
2019-03-23T04:23:37.947Z,249.30
2019-03-23T04:24:37.593Z,285.60
2019-03-23T04:25:37.572Z,272.50
2019-03-23T04:26:39.368Z,226.90
2019-03-23T04:27:37.571Z,233.50
2019-03-23T04:28:37.553Z,251.70
2019-03-23T04:29:37.552Z,245.20
2019-03-23T04:30:37.514Z,231.40
2019-03-23T04:31:37.508Z,255.20
2019-03-23T04:32:37.508Z,244.90
2019-03-23T04:33:37.482Z,258.20
2019-03-23T04:34:37.462Z,264.70
2019-03-23T04:35:37.472Z,289.70
2019-03-23T04:36:37.478Z,299.40
2019-03-23T04:37:37.469Z,274.90
2019-03-23T04:38:37.426Z,307.40
2019-03-23T04:39:37.409Z,305.80
2019-03-23T04:40:37.410Z,326.50
2019-03-23T04:41:37.405Z,299.70
2019-03-23T04:42:37.384Z,260.60
2019-03-23T04:43:37.398Z,269.70
2019-03-23T04:44:37.422Z,282.20
2019-03-23T04:45:37.361Z,300.00
2019-03-23T04:46:37.340Z,350.60
2019-03-23T04:47:37.346Z,288.90
2019-03-23T04:48:37.340Z,289.10
2019-03-23T04:49:37.306Z,317.30
2019-03-23T04:50:37.368Z,321.10
2019-03-23T04:51:37.289Z,406.50
2019-03-23T04:52:37.273Z,307.40
2019-03-23T04:53:37.281Z,263.10
2019-03-23T04:54:38.944Z,474.20
2019-03-23T04:55:37.244Z,302.70
2019-03-23T04:56:37.251Z,425.30
2019-03-23T04:57:37.271Z,301.50
2019-03-23T04:58:37.213Z,431.70
2019-03-23T04:59:37.259Z,313.40
2019-03-23T05:00:37.208Z,298.30
2019-03-23T05:01:37.230Z,340.00
2019-03-23T05:02:37.239Z,306.10
2019-03-23T05:03:37.195Z,300.20
2019-03-23T05:04:37.196Z,331.50
2019-03-23T05:05:37.187Z,309.90
2019-03-23T05:06:37.163Z,281.70
2019-03-23T05:07:37.159Z,249.50
2019-03-23T05:08:37.247Z,351.40
2019-03-23T05:09:37.172Z,342.90
2019-03-23T05:10:37.156Z,365.40
2019-03-23T05:11:37.165Z,363.70
2019-03-23T05:12:37.158Z,325.70
2019-03-23T05:13:37.130Z,317.60
2019-03-23T05:14:37.073Z,355.40
2019-03-23T05:15:37.079Z,279.50
2019-03-23T05:16:37.076Z,318.00
2019-03-23T05:17:37.077Z,289.40
2019-03-23T05:18:37.108Z,315.40
2019-03-23T05:19:37.777Z,271.20
2019-03-23T05:20:37.024Z,284.20
2019-03-23T05:21:37.022Z,284.40
2019-03-23T05:22:37.006Z,254.30
2019-03-23T05:23:37.023Z,236.80
2019-03-23T05:24:36.989Z,278.20
2019-03-23T05:25:37.028Z,283.00
2019-03-23T05:26:36.917Z,271.30
2019-03-23T05:27:36.906Z,301.00
2019-03-23T05:28:36.912Z,275.60
2019-03-23T05:29:36.885Z,236.00
2019-03-23T05:30:36.868Z,262.40
2019-03-23T05:31:36.878Z,236.00
2019-03-23T05:32:36.851Z,255.60
2019-03-23T05:33:36.851Z,271.60
2019-03-23T05:34:36.877Z,285.80
2019-03-23T05:35:36.821Z,293.70
2019-03-23T05:36:36.808Z,292.50
2019-03-23T05:37:36.800Z,291.00
2019-03-23T05:38:44.314Z,235.60
2019-03-23T05:39:37.773Z,261.70
2019-03-23T05:40:36.772Z,290.60
2019-03-23T05:41:36.762Z,276.90
2019-03-23T05:42:36.747Z,248.10
2019-03-23T05:43:36.746Z,277.30
2019-03-23T05:44:36.776Z,281.50
2019-03-23T05:45:36.717Z,256.10
2019-03-23T05:46:36.709Z,287.30
2019-03-23T05:47:36.693Z,263.20
2019-03-23T05:48:36.886Z,232.40
2019-03-23T05:49:36.688Z,226.70
2019-03-23T05:50:36.678Z,229.40
2019-03-23T05:51:36.648Z,265.80
2019-03-23T05:52:36.636Z,218.00
2019-03-23T05:53:36.624Z,240.60
2019-03-23T05:54:36.616Z,252.00
2019-03-23T05:55:36.626Z,239.40
2019-03-23T05:56:36.614Z,271.30
2019-03-23T05:57:36.647Z,281.80
2019-03-23T05:58:36.576Z,260.60
2019-03-23T05:59:36.575Z,311.60
2019-03-23T06:00:36.568Z,315.30
2019-03-23T06:01:36.562Z,321.30
2019-03-23T06:02:36.528Z,312.60
2019-03-23T06:03:36.569Z,273.60
2019-03-23T06:04:36.519Z,300.20
2019-03-23T06:05:36.500Z,281.60
2019-03-23T06:06:36.489Z,293.70
2019-03-23T06:07:36.506Z,280.00
2019-03-23T06:08:36.517Z,281.40
2019-03-23T06:09:36.707Z,305.30
2019-03-23T06:10:36.456Z,290.50
2019-03-23T06:11:36.449Z,277.60
2019-03-23T06:12:36.429Z,282.90
2019-03-23T06:13:36.432Z,269.30
2019-03-23T06:14:36.404Z,248.20
2019-03-23T06:15:36.427Z,255.30
2019-03-23T06:16:36.386Z,259.40
2019-03-23T06:17:36.371Z,273.40
2019-03-23T06:18:36.362Z,264.20
2019-03-23T06:19:36.373Z,237.20
2019-03-23T06:20:36.346Z,234.60
2019-03-23T06:21:36.423Z,240.00
2019-03-23T06:22:36.325Z,234.20
2019-03-23T06:23:36.310Z,249.40
2019-03-23T06:24:36.303Z,227.30
2019-03-23T06:25:36.307Z,229.50
2019-03-23T06:26:36.283Z,230.80
2019-03-23T06:27:36.287Z,228.20
2019-03-23T06:28:36.264Z,214.50
2019-03-23T06:29:36.253Z,198.60
2019-03-23T06:30:36.235Z,225.00
2019-03-23T06:31:36.245Z,189.60
2019-03-23T06:32:36.216Z,211.30
2019-03-23T06:33:36.239Z,188.50
2019-03-23T06:34:36.198Z,198.80
2019-03-23T06:35:36.184Z,195.80
2019-03-23T06:36:36.173Z,201.50
2019-03-23T06:37:36.186Z,175.80
2019-03-23T06:38:36.160Z,196.20
2019-03-23T06:39:36.210Z,192.10
2019-03-23T06:40:36.159Z,180.10
2019-03-23T06:41:36.154Z,184.30
2019-03-23T06:42:36.117Z,170.40
2019-03-23T06:43:36.111Z,166.60
2019-03-23T06:44:36.116Z,172.20
2019-03-23T06:45:36.087Z,174.70
2019-03-23T06:46:36.071Z,167.70
2019-03-23T06:47:36.078Z,169.80
2019-03-23T06:48:36.065Z,161.90
2019-03-23T06:49:36.071Z,172.60
2019-03-23T06:50:36.173Z,160.40
2019-03-23T06:51:36.236Z,159.00
2019-03-23T06:52:36.026Z,151.90
2019-03-23T06:53:36.016Z,162.70
2019-03-23T06:54:35.996Z,156.40
2019-03-23T06:55:36.007Z,162.30
2019-03-23T06:56:35.982Z,158.20
2019-03-23T06:57:35.966Z,159.10
2019-03-23T06:58:36.083Z,163.20
2019-03-23T06:59:35.966Z,159.30
2019-03-23T07:00:35.963Z,165.20
2019-03-23T07:01:35.936Z,156.60
2019-03-23T07:02:35.924Z,153.60
2019-03-23T07:03:35.902Z,154.40
2019-03-23T07:04:36.024Z,146.30
2019-03-23T07:05:35.879Z,146.70
2019-03-23T07:06:35.871Z,139.30
2019-03-23T07:07:35.866Z,155.20
2019-03-23T07:08:35.858Z,153.50
2019-03-23T07:09:35.831Z,154.40
2019-03-23T07:10:35.851Z,152.80
2019-03-23T07:11:35.867Z,149.80
2019-03-23T07:12:36.012Z,149.90
2019-03-23T07:13:35.839Z,148.40
2019-03-23T07:14:35.809Z,141.10
2019-03-23T07:15:35.773Z,148.20
2019-03-23T07:16:35.829Z,147.00
2019-03-23T07:17:35.746Z,153.50
2019-03-23T07:18:35.736Z,146.00
2019-03-23T07:19:35.813Z,139.50
2019-03-23T07:20:35.715Z,147.60
2019-03-23T07:21:35.721Z,150.00
2019-03-23T07:22:35.745Z,155.00
2019-03-23T07:23:35.675Z,150.00
2019-03-23T07:24:35.695Z,148.30
2019-03-23T07:25:35.859Z,139.00
2019-03-23T07:26:35.737Z,140.00
2019-03-23T07:27:35.642Z,157.40
2019-03-23T07:28:35.692Z,137.00
2019-03-23T07:29:35.661Z,148.80
2019-03-23T07:30:35.696Z,148.30
2019-03-23T07:31:35.684Z,140.20
2019-03-23T07:32:35.645Z,141.10
2019-03-23T07:33:35.610Z,154.20
2019-03-23T07:34:35.652Z,140.90
2019-03-23T07:35:35.564Z,146.20
2019-03-23T07:36:35.538Z,142.30
2019-03-23T07:37:35.535Z,138.30
2019-03-23T07:38:35.541Z,139.50
2019-03-23T07:39:35.503Z,147.00
2019-03-23T07:40:35.494Z,146.60
2019-03-23T07:41:35.505Z,138.80
2019-03-23T07:42:35.488Z,145.60
2019-03-23T07:43:35.459Z,134.70
2019-03-23T07:44:35.457Z,151.50
2019-03-23T07:45:35.451Z,138.70
2019-03-23T07:46:35.430Z,129.60
2019-03-23T07:47:35.454Z,137.10
2019-03-23T07:48:35.407Z,135.50
2019-03-23T07:49:35.408Z,129.20
2019-03-23T07:50:35.416Z,133.90
2019-03-23T07:51:35.371Z,132.50
2019-03-23T07:52:35.368Z,131.70
2019-03-23T07:53:35.378Z,141.30
2019-03-23T07:54:35.346Z,142.20
2019-03-23T07:55:35.351Z,136.50
2019-03-23T07:56:35.328Z,123.60
2019-03-23T07:57:35.325Z,130.90
2019-03-23T07:58:35.318Z,129.00
2019-03-23T07:59:35.317Z,120.60
2019-03-23T08:00:35.316Z,122.90
2019-03-23T08:01:35.312Z,118.50
2019-03-23T08:02:35.275Z,125.90
2019-03-23T08:03:35.253Z,120.60
2019-03-23T08:04:35.254Z,128.10
2019-03-23T08:05:35.261Z,132.60
2019-03-23T08:06:35.214Z,124.40
2019-03-23T08:07:35.217Z,122.40
2019-03-23T08:08:35.229Z,132.80
2019-03-23T08:09:37.840Z,121.50
2019-03-23T08:10:35.196Z,122.40
2019-03-23T08:11:35.170Z,128.70
2019-03-23T08:12:35.148Z,121.70
2019-03-23T08:13:35.162Z,121.40
2019-03-23T08:14:36.212Z,133.50
2019-03-23T08:15:35.119Z,115.60
2019-03-23T08:16:35.177Z,120.50
2019-03-23T08:17:35.122Z,129.40
2019-03-23T08:18:35.081Z,124.90
2019-03-23T08:19:35.078Z,119.80
2019-03-23T08:20:35.066Z,124.70
2019-03-23T08:21:35.066Z,121.90
2019-03-23T08:22:35.037Z,116.70
2019-03-23T08:23:35.063Z,119.20
2019-03-23T08:24:35.032Z,121.60
2019-03-23T08:25:35.003Z,121.00
2019-03-23T08:26:35.008Z,126.40
2019-03-23T08:27:35.025Z,125.00
2019-03-23T08:28:34.979Z,129.80
2019-03-23T08:29:34.986Z,128.70
2019-03-23T08:30:34.974Z,133.40
2019-03-23T08:31:35.054Z,125.90
2019-03-23T08:32:34.941Z,120.90
2019-03-23T08:33:34.935Z,126.10
2019-03-23T08:34:34.928Z,122.90
2019-03-23T08:35:34.901Z,124.00
2019-03-23T08:36:35.268Z,121.00
2019-03-23T08:37:34.893Z,121.10
2019-03-23T08:38:34.883Z,116.40
2019-03-23T08:39:35.006Z,120.80
2019-03-23T08:40:35.893Z,125.20
2019-03-23T08:41:34.863Z,127.20
2019-03-23T08:42:35.068Z,118.50
2019-03-23T08:43:34.830Z,134.50
2019-03-23T08:44:34.819Z,119.10
2019-03-23T08:45:34.817Z,127.10
2019-03-23T08:46:34.802Z,129.60
2019-03-23T08:47:34.785Z,119.30
2019-03-23T08:48:34.777Z,123.00
2019-03-23T08:49:34.768Z,113.60
2019-03-23T08:50:34.767Z,125.00
2019-03-23T08:51:34.728Z,115.60
2019-03-23T08:52:34.720Z,125.50
2019-03-23T08:53:34.732Z,124.40
2019-03-23T08:54:34.715Z,124.80
2019-03-23T08:55:34.718Z,119.40
2019-03-23T08:56:34.703Z,126.70
2019-03-23T08:57:34.668Z,125.80
2019-03-23T08:58:34.657Z,115.60
2019-03-23T08:59:35.057Z,123.80
2019-03-23T09:00:34.633Z,122.00
2019-03-23T09:01:34.641Z,118.90
2019-03-23T09:02:34.626Z,118.20
2019-03-23T09:03:34.646Z,119.90
2019-03-23T09:04:34.587Z,127.60
2019-03-23T09:05:34.592Z,115.10
2019-03-23T09:06:34.570Z,129.10
2019-03-23T09:07:34.559Z,121.60
2019-03-23T09:08:34.547Z,125.90
2019-03-23T09:09:34.538Z,113.40
2019-03-23T09:10:34.602Z,114.80
2019-03-23T09:11:34.542Z,127.90
2019-03-23T09:12:34.554Z,120.10
2019-03-23T09:13:40.618Z,122.00
2019-03-23T09:14:35.505Z,117.90
2019-03-23T09:15:34.472Z,127.90
2019-03-23T09:16:34.475Z,117.10
2019-03-23T09:17:34.507Z,116.30
2019-03-23T09:18:34.437Z,115.70
2019-03-23T09:19:34.428Z,116.20
2019-03-23T09:20:34.448Z,118.00
2019-03-23T09:21:34.412Z,111.40
2019-03-23T09:22:34.523Z,110.70
2019-03-23T09:23:34.388Z,109.20
2019-03-23T09:24:34.384Z,94.00
2019-03-23T09:25:34.382Z,93.40
2019-03-23T09:26:34.367Z,97.20
2019-03-23T09:27:34.456Z,93.10
2019-03-23T09:28:34.385Z,91.80
2019-03-23T09:29:34.332Z,99.00
2019-03-23T09:30:34.328Z,95.80
2019-03-23T09:31:34.299Z,94.50
2019-03-23T09:32:34.340Z,89.50
2019-03-23T09:33:34.283Z,100.80
2019-03-23T09:34:34.285Z,100.80
2019-03-23T09:35:34.307Z,98.10
2019-03-23T09:36:34.294Z,93.60
2019-03-23T09:37:38.303Z,92.10
2019-03-23T09:38:34.285Z,90.50
2019-03-23T09:39:34.243Z,97.90
2019-03-23T09:40:34.222Z,96.80
2019-03-23T09:41:34.208Z,97.90
2019-03-23T09:42:34.201Z,93.30
2019-03-23T09:43:34.186Z,97.20
2019-03-23T09:44:34.159Z,105.30
2019-03-23T09:45:34.169Z,96.70
2019-03-23T09:46:34.239Z,96.90
2019-03-23T09:47:34.220Z,97.00
2019-03-23T09:48:34.120Z,90.50
2019-03-23T09:49:34.151Z,95.50
2019-03-23T09:50:34.096Z,92.10
2019-03-23T09:51:34.094Z,97.00
2019-03-23T09:52:34.118Z,96.00
2019-03-23T09:53:34.093Z,90.70
2019-03-23T09:54:34.080Z,91.30
2019-03-23T09:55:34.155Z,77.90
2019-03-23T09:56:34.085Z,90.80
2019-03-23T09:57:34.062Z,84.30
2019-03-23T09:58:34.043Z,91.00
2019-03-23T09:59:34.024Z,83.80
2019-03-23T10:00:34.005Z,81.10
2019-03-23T10:01:34.022Z,83.90
2019-03-23T10:02:33.988Z,90.30
2019-03-23T10:03:34.042Z,86.70
2019-03-23T10:04:33.963Z,83.30
2019-03-23T10:05:33.949Z,79.10
2019-03-23T10:06:33.960Z,84.30
2019-03-23T10:07:33.932Z,93.10
2019-03-23T10:08:33.968Z,85.50
2019-03-23T10:09:33.904Z,83.30
2019-03-23T10:10:33.965Z,84.40
2019-03-23T10:11:33.888Z,90.30
2019-03-23T10:12:33.879Z,86.10
2019-03-23T10:13:33.861Z,87.80
2019-03-23T10:14:33.913Z,92.60
2019-03-23T10:15:33.843Z,88.00
2019-03-23T10:16:33.841Z,93.80
2019-03-23T10:17:33.817Z,86.30
2019-03-23T10:18:33.932Z,93.60
2019-03-23T10:19:33.793Z,91.60
2019-03-23T10:20:33.817Z,91.30
2019-03-23T10:21:33.812Z,85.50
2019-03-23T10:22:33.987Z,87.60
2019-03-23T10:23:33.774Z,90.70
2019-03-23T10:24:33.760Z,83.90
2019-03-23T10:25:33.732Z,89.50
2019-03-23T10:26:33.742Z,90.10
2019-03-23T10:27:33.781Z,93.50
2019-03-23T10:28:33.705Z,85.30
2019-03-23T10:29:33.718Z,92.80
2019-03-23T10:30:33.684Z,85.70
2019-03-23T10:31:33.662Z,94.70
2019-03-23T10:32:33.677Z,88.90
2019-03-23T10:33:33.666Z,84.70
2019-03-23T10:34:33.631Z,85.60
2019-03-23T10:35:33.649Z,89.20
2019-03-23T10:36:33.617Z,83.20
2019-03-23T10:37:33.686Z,88.40
2019-03-23T10:38:33.644Z,88.10
2019-03-23T10:39:33.596Z,89.40
2019-03-23T10:40:33.571Z,87.90
2019-03-23T10:41:33.569Z,84.20
2019-03-23T10:42:33.629Z,87.50
2019-03-23T10:43:33.891Z,90.90
2019-03-23T10:44:33.552Z,91.40
2019-03-23T10:45:43.507Z,84.80
2019-03-23T10:46:34.521Z,86.20
2019-03-23T10:47:33.655Z,87.30
2019-03-23T10:48:33.522Z,84.20
2019-03-23T10:49:33.480Z,77.80
2019-03-23T10:50:33.581Z,86.10
2019-03-23T10:51:33.465Z,84.10
2019-03-23T10:52:33.458Z,91.80
2019-03-23T10:53:33.437Z,88.70
2019-03-23T10:54:33.467Z,85.20
2019-03-23T10:55:33.420Z,82.90
2019-03-23T10:56:33.403Z,90.20
2019-03-23T10:57:33.503Z,93.30
2019-03-23T10:58:33.400Z,91.90
2019-03-23T10:59:33.380Z,82.80
2019-03-23T11:00:33.399Z,85.80
2019-03-23T11:01:33.368Z,81.40
2019-03-23T11:02:33.388Z,83.80
2019-03-23T11:03:33.339Z,81.20
2019-03-23T11:04:33.343Z,84.10
2019-03-23T11:05:33.321Z,80.50
2019-03-23T11:06:33.338Z,85.10
2019-03-23T11:07:33.285Z,84.00
2019-03-23T11:08:33.290Z,84.00
2019-03-23T11:09:33.341Z,84.10
2019-03-23T11:10:41.545Z,81.50
2019-03-23T11:11:34.296Z,80.90
2019-03-23T11:12:33.232Z,77.00
2019-03-23T11:13:33.226Z,85.20
2019-03-23T11:14:33.348Z,83.20
2019-03-23T11:15:33.236Z,79.10
2019-03-23T11:16:33.190Z,84.10
2019-03-23T11:17:33.206Z,85.30
2019-03-23T11:18:33.277Z,78.50
2019-03-23T11:19:33.162Z,79.10
2019-03-23T11:20:33.170Z,79.00
2019-03-23T11:21:33.147Z,78.60
2019-03-23T11:22:33.130Z,78.50
2019-03-23T11:23:33.216Z,77.70
2019-03-23T11:24:33.153Z,84.80
2019-03-23T11:25:33.112Z,81.10
2019-03-23T11:26:33.143Z,83.00
2019-03-23T11:27:33.103Z,78.70
2019-03-23T11:28:33.073Z,86.20
2019-03-23T11:29:33.090Z,82.70
2019-03-23T11:30:33.058Z,85.00
2019-03-23T11:31:33.048Z,86.30
2019-03-23T11:32:33.041Z,84.30
2019-03-23T11:33:33.011Z,81.50
2019-03-23T11:34:33.013Z,81.30
2019-03-23T11:35:33.022Z,79.50
2019-03-23T11:36:33.008Z,84.90
2019-03-23T11:37:33.034Z,84.50
2019-03-23T11:38:32.958Z,86.30
2019-03-23T11:39:32.952Z,85.00
2019-03-23T11:40:32.983Z,84.00
2019-03-23T11:41:32.983Z,79.30
2019-03-23T11:42:33.748Z,83.30
2019-03-23T11:43:32.920Z,78.90
2019-03-23T11:44:32.953Z,84.20
2019-03-23T11:45:32.888Z,83.60
2019-03-23T11:46:32.878Z,76.20
2019-03-23T11:47:33.218Z,77.80
2019-03-23T11:48:32.856Z,77.40
2019-03-23T11:49:32.856Z,79.10
2019-03-23T11:50:32.845Z,84.20
2019-03-23T11:51:32.849Z,78.40
2019-03-23T11:52:32.837Z,69.90
2019-03-23T11:53:32.817Z,62.40
2019-03-23T11:54:32.809Z,64.30
2019-03-23T11:55:32.806Z,63.30
2019-03-23T11:56:32.778Z,64.10
2019-03-23T11:57:32.757Z,59.70
2019-03-23T11:58:32.757Z,64.60
2019-03-23T11:59:32.755Z,68.40
2019-03-23T12:00:32.796Z,68.20
2019-03-23T12:01:32.715Z,63.50
2019-03-23T12:02:32.735Z,64.00
2019-03-23T12:03:32.797Z,70.70
2019-03-23T12:04:32.699Z,66.40
2019-03-23T12:05:32.693Z,67.00
2019-03-23T12:06:32.677Z,67.40
2019-03-23T12:07:32.683Z,69.00
2019-03-23T12:08:32.863Z,68.00
2019-03-23T12:09:32.627Z,70.50
2019-03-23T12:10:32.634Z,70.10
2019-03-23T12:11:32.640Z,70.80
2019-03-23T12:12:32.636Z,70.90
2019-03-23T12:13:32.584Z,74.50
2019-03-23T12:14:32.597Z,69.10
2019-03-23T12:15:32.567Z,70.80
2019-03-23T12:16:32.557Z,73.90
2019-03-23T12:17:32.577Z,71.60
2019-03-23T12:18:32.538Z,68.20
2019-03-23T12:19:32.531Z,72.00
2019-03-23T12:20:32.516Z,73.80
2019-03-23T12:21:32.506Z,72.30
2019-03-23T12:22:32.496Z,75.20
2019-03-23T12:23:32.525Z,71.60
2019-03-23T12:24:32.496Z,70.80
2019-03-23T12:25:32.467Z,67.60
2019-03-23T12:26:32.441Z,70.80
2019-03-23T12:27:32.454Z,66.50
2019-03-23T12:28:32.518Z,66.80
2019-03-23T12:29:32.775Z,72.30
2019-03-23T12:30:32.408Z,67.60
2019-03-23T12:31:32.407Z,69.90
2019-03-23T12:32:32.389Z,64.80
2019-03-23T12:33:32.444Z,66.50
2019-03-23T12:34:32.379Z,65.00
2019-03-23T12:35:32.366Z,65.30
2019-03-23T12:36:32.335Z,66.30
2019-03-23T12:37:32.405Z,71.50
2019-03-23T12:38:32.321Z,59.20
2019-03-23T12:39:32.314Z,56.20
2019-03-23T12:40:32.302Z,57.70
2019-03-23T12:41:32.699Z,59.20
2019-03-23T12:42:32.310Z,56.00
2019-03-23T12:43:32.271Z,57.10